Terminal Aerodrome Forecast
Issued by NWS

Home | Current Version | Previous Version | Text Only | Print | Product List | Glossary On
Versions: 1 2 3 4 5 6 7 8 9 10 11 12 13 14 15
000
FTUS42 KMLB 222300
TAFTIX
TAF
KTIX 222324Z 2300/2324 VRB03KT 5SM -SHRA BKN050 BKN150
     FM230400 VRB03KT P6SM VCSH FEW030 SCT050 BKN250
     FM231400 VRB02KT P6SM FEW005 SCT030 SCT060
     FM232000 11008KT P6SM VCTS FEW025 SCT040CB BKN100
      AMD NOT SKED 2301/2311=

USA.gov is the U.S. government's official web portal to all federal, state and local government web resources and services.